桃園國際機場 - 塔臺(二站)

METAR RCTP 240630Z 01011KT 3500 -RA BR SCT003 BKN008 BKN020 24/22 Q1010 NOSIG RMK A2985=

站台狀態:Online
最後更新:2020-09-24 14:30:01